sensor_id;sensor_type;location;lat;lon;timestamp;P1;durP1;ratioP1;P2;durP2;ratioP2
15035;SDS011;7615;48.574;13.474;2023-08-01T00:01:59;7.35;;;3.25;;
15035;SDS011;7615;48.574;13.474;2023-08-01T00:04:26;4.30;;;3.17;;
15035;SDS011;7615;48.574;13.474;2023-08-01T00:06:54;6.03;;;3.95;;
15035;SDS011;7615;48.574;13.474;2023-08-01T00:09:21;3.28;;;2.95;;
15035;SDS011;7615;48.574;13.474;2023-08-01T00:11:48;6.95;;;3.40;;
15035;SDS011;7615;48.574;13.474;2023-08-01T00:14:15;3.47;;;2.97;;
15035;SDS011;7615;48.574;13.474;2023-08-01T00:16:42;4.15;;;2.83;;
15035;SDS011;7615;48.574;13.474;2023-08-01T00:19:09;5.40;;;3.00;;
15035;SDS011;7615;48.574;13.474;2023-08-01T00:21:37;6.75;;;3.20;;
15035;SDS011;7615;48.574;13.474;2023-08-01T00:24:05;4.63;;;3.20;;
15035;SDS011;7615;48.574;13.474;2023-08-01T00:26:33;5.47;;;3.22;;
15035;SDS011;7615;48.574;13.474;2023-08-01T00:29:00;9.60;;;3.50;;
15035;SDS011;7615;48.574;13.474;2023-08-01T00:31:27;4.28;;;3.33;;
15035;SDS011;7615;48.574;13.474;2023-08-01T00:33:53;6.68;;;3.80;;
15035;SDS011;7615;48.574;13.474;2023-08-01T00:36:20;4.05;;;3.30;;
15035;SDS011;7615;48.574;13.474;2023-08-01T00:38:47;5.07;;;3.78;;
15035;SDS011;7615;48.574;13.474;2023-08-01T00:41:15;3.40;;;3.03;;
15035;SDS011;7615;48.574;13.474;2023-08-01T00:43:42;4.95;;;3.50;;
15035;SDS011;7615;48.574;13.474;2023-08-01T00:46:09;4.78;;;3.20;;
15035;SDS011;7615;48.574;13.474;2023-08-01T00:48:36;4.60;;;3.42;;
15035;SDS011;7615;48.574;13.474;2023-08-01T00:51:04;6.88;;;3.42;;
15035;SDS011;7615;48.574;13.474;2023-08-01T00:53:32;4.15;;;3.67;;
15035;SDS011;7615;48.574;13.474;2023-08-01T00:55:59;5.93;;;3.15;;
15035;SDS011;7615;48.574;13.474;2023-08-01T00:58:28;5.68;;;3.70;;
15035;SDS011;7615;48.574;13.474;2023-08-01T01:00:54;3.83;;;3.50;;
15035;SDS011;7615;48.574;13.474;2023-08-01T01:03:22;6.60;;;3.80;;
15035;SDS011;7615;48.574;13.474;2023-08-01T01:05:52;5.15;;;3.70;;
15035;SDS011;7615;48.574;13.474;2023-08-01T01:08:22;6.75;;;3.45;;
15035;SDS011;7615;48.574;13.474;2023-08-01T01:10:49;4.15;;;3.55;;
15035;SDS011;7615;48.574;13.474;2023-08-01T01:13:16;4.25;;;3.85;;
15035;SDS011;7615;48.574;13.474;2023-08-01T01:15:44;6.53;;;3.80;;
15035;SDS011;7615;48.574;13.474;2023-08-01T01:18:11;6.20;;;4.20;;
15035;SDS011;7615;48.574;13.474;2023-08-01T01:20:39;3.35;;;3.05;;
15035;SDS011;7615;48.574;13.474;2023-08-01T01:23:06;4.40;;;3.50;;
15035;SDS011;7615;48.574;13.474;2023-08-01T01:25:35;7.93;;;3.90;;
15035;SDS011;7615;48.574;13.474;2023-08-01T01:28:04;5.28;;;3.65;;
15035;SDS011;7615;48.574;13.474;2023-08-01T01:30:33;3.95;;;3.65;;
15035;SDS011;7615;48.574;13.474;2023-08-01T01:33:01;4.15;;;3.75;;
15035;SDS011;7615;48.574;13.474;2023-08-01T01:35:29;6.85;;;3.83;;
15035;SDS011;7615;48.574;13.474;2023-08-01T01:37:57;3.67;;;3.38;;
15035;SDS011;7615;48.574;13.474;2023-08-01T01:40:28;5.72;;;3.78;;
15035;SDS011;7615;48.574;13.474;2023-08-01T01:42:55;4.97;;;3.78;;
15035;SDS011;7615;48.574;13.474;2023-08-01T01:45:22;4.18;;;3.30;;
15035;SDS011;7615;48.574;13.474;2023-08-01T01:47:49;5.57;;;3.55;;
15035;SDS011;7615;48.574;13.474;2023-08-01T01:50:15;4.10;;;3.58;;
15035;SDS011;7615;48.574;13.474;2023-08-01T01:52:42;4.75;;;3.53;;
15035;SDS011;7615;48.574;13.474;2023-08-01T01:55:11;6.22;;;3.50;;
15035;SDS011;7615;48.574;13.474;2023-08-01T01:57:38;4.40;;;3.50;;
15035;SDS011;7615;48.574;13.474;2023-08-01T02:00:05;4.43;;;3.60;;
15035;SDS011;7615;48.574;13.474;2023-08-01T02:02:35;3.85;;;3.20;;
15035;SDS011;7615;48.574;13.474;2023-08-01T02:05:02;4.63;;;3.60;;
15035;SDS011;7615;48.574;13.474;2023-08-01T02:07:29;5.50;;;3.97;;
15035;SDS011;7615;48.574;13.474;2023-08-01T02:09:58;4.40;;;3.72;;
15035;SDS011;7615;48.574;13.474;2023-08-01T02:12:26;4.07;;;3.58;;
15035;SDS011;7615;48.574;13.474;2023-08-01T02:14:56;4.55;;;3.85;;
15035;SDS011;7615;48.574;13.474;2023-08-01T02:17:23;5.10;;;3.60;;
15035;SDS011;7615;48.574;13.474;2023-08-01T02:19:50;4.25;;;3.75;;
15035;SDS011;7615;48.574;13.474;2023-08-01T02:22:16;5.30;;;4.80;;
15035;SDS011;7615;48.574;13.474;2023-08-01T02:24:43;6.07;;;3.80;;
15035;SDS011;7615;48.574;13.474;2023-08-01T02:27:10;5.68;;;3.72;;
15035;SDS011;7615;48.574;13.474;2023-08-01T02:29:38;6.43;;;4.03;;
15035;SDS011;7615;48.574;13.474;2023-08-01T02:32:05;4.47;;;4.00;;
15035;SDS011;7615;48.574;13.474;2023-08-01T02:34:33;7.35;;;4.07;;
15035;SDS011;7615;48.574;13.474;2023-08-01T02:36:59;5.85;;;3.63;;
15035;SDS011;7615;48.574;13.474;2023-08-01T02:39:26;5.28;;;3.88;;
15035;SDS011;7615;48.574;13.474;2023-08-01T02:41:54;6.32;;;4.05;;
15035;SDS011;7615;48.574;13.474;2023-08-01T02:44:21;7.88;;;4.28;;
15035;SDS011;7615;48.574;13.474;2023-08-01T02:46:49;5.70;;;3.72;;
15035;SDS011;7615;48.574;13.474;2023-08-01T02:49:16;3.88;;;3.53;;
15035;SDS011;7615;48.574;13.474;2023-08-01T02:51:43;4.30;;;3.88;;
15035;SDS011;7615;48.574;13.474;2023-08-01T02:54:09;5.30;;;3.80;;
15035;SDS011;7615;48.574;13.474;2023-08-01T02:56:36;8.63;;;4.25;;
15035;SDS011;7615;48.574;13.474;2023-08-01T02:59:06;6.10;;;4.35;;
15035;SDS011;7615;48.574;13.474;2023-08-01T03:01:33;4.38;;;3.88;;
15035;SDS011;7615;48.574;13.474;2023-08-01T03:04:01;5.63;;;3.65;;
15035;SDS011;7615;48.574;13.474;2023-08-01T03:06:29;3.80;;;3.50;;
15035;SDS011;7615;48.574;13.474;2023-08-01T03:08:55;6.15;;;3.78;;
15035;SDS011;7615;48.574;13.474;2023-08-01T03:11:22;5.13;;;3.67;;
15035;SDS011;7615;48.574;13.474;2023-08-01T03:13:49;5.32;;;3.65;;
15035;SDS011;7615;48.574;13.474;2023-08-01T03:16:17;5.95;;;3.65;;
15035;SDS011;7615;48.574;13.474;2023-08-01T03:18:44;7.60;;;4.35;;
15035;SDS011;7615;48.574;13.474;2023-08-01T03:21:12;6.45;;;3.72;;
15035;SDS011;7615;48.574;13.474;2023-08-01T03:23:39;4.03;;;3.63;;
15035;SDS011;7615;48.574;13.474;2023-08-01T03:26:06;4.55;;;3.45;;
15035;SDS011;7615;48.574;13.474;2023-08-01T03:28:33;5.20;;;3.40;;
15035;SDS011;7615;48.574;13.474;2023-08-01T03:31:00;4.72;;;3.70;;
15035;SDS011;7615;48.574;13.474;2023-08-01T03:33:27;7.75;;;3.95;;
15035;SDS011;7615;48.574;13.474;2023-08-01T03:35:54;5.03;;;3.83;;
15035;SDS011;7615;48.574;13.474;2023-08-01T03:38:22;4.80;;;3.53;;
15035;SDS011;7615;48.574;13.474;2023-08-01T03:40:49;4.47;;;3.80;;
15035;SDS011;7615;48.574;13.474;2023-08-01T03:43:16;3.92;;;3.63;;
15035;SDS011;7615;48.574;13.474;2023-08-01T03:45:48;4.15;;;3.63;;
15035;SDS011;7615;48.574;13.474;2023-08-01T03:48:15;3.88;;;3.35;;
15035;SDS011;7615;48.574;13.474;2023-08-01T03:50:42;4.20;;;3.80;;
15035;SDS011;7615;48.574;13.474;2023-08-01T03:53:08;3.70;;;3.40;;
15035;SDS011;7615;48.574;13.474;2023-08-01T03:55:37;7.15;;;3.90;;
15035;SDS011;7615;48.574;13.474;2023-08-01T03:58:03;7.32;;;3.83;;
15035;SDS011;7615;48.574;13.474;2023-08-01T04:00:30;4.40;;;3.75;;
15035;SDS011;7615;48.574;13.474;2023-08-01T04:02:58;4.22;;;3.83;;
15035;SDS011;7615;48.574;13.474;2023-08-01T04:05:24;4.47;;;3.72;;
15035;SDS011;7615;48.574;13.474;2023-08-01T04:07:51;6.43;;;3.95;;
15035;SDS011;7615;48.574;13.474;2023-08-01T04:10:19;4.10;;;3.70;;
15035;SDS011;7615;48.574;13.474;2023-08-01T04:12:48;3.50;;;3.20;;
15035;SDS011;7615;48.574;13.474;2023-08-01T04:15:15;4.05;;;3.60;;
15035;SDS011;7615;48.574;13.474;2023-08-01T04:17:42;3.97;;;3.28;;
15035;SDS011;7615;48.574;13.474;2023-08-01T04:20:09;10.48;;;5.07;;
15035;SDS011;7615;48.574;13.474;2023-08-01T04:22:36;4.25;;;3.63;;
15035;SDS011;7615;48.574;13.474;2023-08-01T04:25:03;4.00;;;3.60;;
15035;SDS011;7615;48.574;13.474;2023-08-01T04:27:30;5.20;;;3.67;;
15035;SDS011;7615;48.574;13.474;2023-08-01T04:29:58;5.47;;;3.80;;
15035;SDS011;7615;48.574;13.474;2023-08-01T04:32:26;5.22;;;3.60;;
15035;SDS011;7615;48.574;13.474;2023-08-01T04:34:53;6.07;;;3.78;;
15035;SDS011;7615;48.574;13.474;2023-08-01T04:37:20;5.97;;;3.80;;
15035;SDS011;7615;48.574;13.474;2023-08-01T04:39:48;3.80;;;3.50;;
15035;SDS011;7615;48.574;13.474;2023-08-01T04:42:15;4.80;;;3.70;;
15035;SDS011;7615;48.574;13.474;2023-08-01T04:44:42;5.35;;;3.80;;
15035;SDS011;7615;48.574;13.474;2023-08-01T04:47:10;4.65;;;3.88;;
15035;SDS011;7615;48.574;13.474;2023-08-01T04:49:37;4.68;;;4.07;;
15035;SDS011;7615;48.574;13.474;2023-08-01T04:52:04;6.30;;;3.78;;
15035;SDS011;7615;48.574;13.474;2023-08-01T04:54:32;5.25;;;4.18;;
15035;SDS011;7615;48.574;13.474;2023-08-01T04:56:58;4.78;;;3.92;;
15035;SDS011;7615;48.574;13.474;2023-08-01T04:59:25;4.90;;;4.30;;
15035;SDS011;7615;48.574;13.474;2023-08-01T05:01:52;4.18;;;3.72;;
15035;SDS011;7615;48.574;13.474;2023-08-01T05:04:20;7.07;;;3.90;;
15035;SDS011;7615;48.574;13.474;2023-08-01T05:06:47;4.53;;;4.03;;
15035;SDS011;7615;48.574;13.474;2023-08-01T05:09:14;5.68;;;3.90;;
15035;SDS011;7615;48.574;13.474;2023-08-01T05:11:40;4.80;;;3.90;;
15035;SDS011;7615;48.574;13.474;2023-08-01T05:14:07;3.88;;;3.55;;
15035;SDS011;7615;48.574;13.474;2023-08-01T05:16:34;10.48;;;4.47;;
15035;SDS011;7615;48.574;13.474;2023-08-01T05:19:01;4.60;;;3.80;;
15035;SDS011;7615;48.574;13.474;2023-08-01T05:21:29;5.25;;;3.60;;
15035;SDS011;7615;48.574;13.474;2023-08-01T05:23:56;5.35;;;4.00;;
15035;SDS011;7615;48.574;13.474;2023-08-01T05:26:22;7.70;;;4.00;;
15035;SDS011;7615;48.574;13.474;2023-08-01T05:28:49;4.93;;;4.10;;
15035;SDS011;7615;48.574;13.474;2023-08-01T05:31:16;6.80;;;4.03;;
15035;SDS011;7615;48.574;13.474;2023-08-01T05:33:43;5.25;;;4.15;;
15035;SDS011;7615;48.574;13.474;2023-08-01T05:36:10;6.55;;;4.47;;
15035;SDS011;7615;48.574;13.474;2023-08-01T05:38:38;5.70;;;3.45;;
15035;SDS011;7615;48.574;13.474;2023-08-01T05:41:04;7.22;;;4.03;;
15035;SDS011;7615;48.574;13.474;2023-08-01T05:43:31;11.10;;;4.40;;
15035;SDS011;7615;48.574;13.474;2023-08-01T05:45:58;4.78;;;3.83;;
15035;SDS011;7615;48.574;13.474;2023-08-01T05:48:25;4.63;;;4.15;;
15035;SDS011;7615;48.574;13.474;2023-08-01T05:50:52;5.65;;;4.00;;
15035;SDS011;7615;48.574;13.474;2023-08-01T05:53:20;4.43;;;3.67;;
15035;SDS011;7615;48.574;13.474;2023-08-01T05:55:48;5.50;;;4.28;;
15035;SDS011;7615;48.574;13.474;2023-08-01T05:58:15;6.75;;;4.38;;
15035;SDS011;7615;48.574;13.474;2023-08-01T06:00:42;6.45;;;4.18;;
15035;SDS011;7615;48.574;13.474;2023-08-01T06:03:12;5.15;;;4.32;;
15035;SDS011;7615;48.574;13.474;2023-08-01T06:05:39;5.03;;;4.00;;
15035;SDS011;7615;48.574;13.474;2023-08-01T06:08:06;7.95;;;4.57;;
15035;SDS011;7615;48.574;13.474;2023-08-01T06:10:41;10.40;;;4.80;;
15035;SDS011;7615;48.574;13.474;2023-08-01T06:13:15;7.47;;;4.43;;
15035;SDS011;7615;48.574;13.474;2023-08-01T06:15:42;5.85;;;4.50;;
15035;SDS011;7615;48.574;13.474;2023-08-01T06:18:09;7.43;;;4.60;;
15035;SDS011;7615;48.574;13.474;2023-08-01T06:20:36;7.75;;;4.40;;
15035;SDS011;7615;48.574;13.474;2023-08-01T06:23:03;6.15;;;4.80;;
15035;SDS011;7615;48.574;13.474;2023-08-01T06:25:30;4.88;;;4.10;;
15035;SDS011;7615;48.574;13.474;2023-08-01T06:27:57;4.95;;;3.78;;
15035;SDS011;7615;48.574;13.474;2023-08-01T06:30:27;4.93;;;4.30;;
15035;SDS011;7615;48.574;13.474;2023-08-01T06:32:54;5.22;;;4.25;;
15035;SDS011;7615;48.574;13.474;2023-08-01T06:35:21;7.53;;;4.50;;
15035;SDS011;7615;48.574;13.474;2023-08-01T06:37:48;5.72;;;4.35;;
15035;SDS011;7615;48.574;13.474;2023-08-01T06:40:15;5.35;;;4.10;;
15035;SDS011;7615;48.574;13.474;2023-08-01T06:42:42;5.25;;;4.43;;
15035;SDS011;7615;48.574;13.474;2023-08-01T06:45:09;5.85;;;4.75;;
15035;SDS011;7615;48.574;13.474;2023-08-01T06:47:37;6.35;;;4.10;;
15035;SDS011;7615;48.574;13.474;2023-08-01T06:50:04;6.57;;;4.13;;
15035;SDS011;7615;48.574;13.474;2023-08-01T06:52:32;5.10;;;4.25;;
15035;SDS011;7615;48.574;13.474;2023-08-01T06:54:59;5.07;;;4.07;;
15035;SDS011;7615;48.574;13.474;2023-08-01T06:57:26;7.38;;;4.47;;
15035;SDS011;7615;48.574;13.474;2023-08-01T06:59:53;8.45;;;4.20;;
15035;SDS011;7615;48.574;13.474;2023-08-01T07:02:20;6.90;;;4.65;;
15035;SDS011;7615;48.574;13.474;2023-08-01T07:04:48;4.75;;;4.25;;
15035;SDS011;7615;48.574;13.474;2023-08-01T07:07:15;8.60;;;4.40;;
15035;SDS011;7615;48.574;13.474;2023-08-01T07:09:42;7.47;;;4.53;;
15035;SDS011;7615;48.574;13.474;2023-08-01T07:12:09;8.48;;;4.45;;
15035;SDS011;7615;48.574;13.474;2023-08-01T07:14:36;5.20;;;3.97;;
15035;SDS011;7615;48.574;13.474;2023-08-01T07:17:03;4.75;;;3.95;;
15035;SDS011;7615;48.574;13.474;2023-08-01T07:19:30;6.85;;;4.18;;
15035;SDS011;7615;48.574;13.474;2023-08-01T07:21:58;5.70;;;4.13;;
15035;SDS011;7615;48.574;13.474;2023-08-01T07:24:25;5.78;;;4.32;;
15035;SDS011;7615;48.574;13.474;2023-08-01T07:26:52;6.20;;;3.90;;
15035;SDS011;7615;48.574;13.474;2023-08-01T07:29:19;4.78;;;4.20;;
15035;SDS011;7615;48.574;13.474;2023-08-01T07:31:46;7.03;;;4.00;;
15035;SDS011;7615;48.574;13.474;2023-08-01T07:34:13;6.05;;;4.13;;
15035;SDS011;7615;48.574;13.474;2023-08-01T07:36:39;5.05;;;4.25;;
15035;SDS011;7615;48.574;13.474;2023-08-01T07:39:08;5.53;;;4.22;;
15035;SDS011;7615;48.574;13.474;2023-08-01T07:41:35;4.57;;;3.97;;
15035;SDS011;7615;48.574;13.474;2023-08-01T07:44:02;5.45;;;3.75;;
15035;SDS011;7615;48.574;13.474;2023-08-01T07:46:29;6.82;;;4.68;;
15035;SDS011;7615;48.574;13.474;2023-08-01T07:48:55;7.30;;;4.70;;
15035;SDS011;7615;48.574;13.474;2023-08-01T07:51:22;6.28;;;4.00;;
15035;SDS011;7615;48.574;13.474;2023-08-01T07:53:50;4.68;;;4.18;;
15035;SDS011;7615;48.574;13.474;2023-08-01T07:56:19;5.53;;;3.88;;
15035;SDS011;7615;48.574;13.474;2023-08-01T07:58:46;7.57;;;3.92;;
15035;SDS011;7615;48.574;13.474;2023-08-01T08:01:12;5.25;;;3.78;;
15035;SDS011;7615;48.574;13.474;2023-08-01T08:03:39;4.82;;;3.95;;
15035;SDS011;7615;48.574;13.474;2023-08-01T08:06:06;5.93;;;4.22;;
15035;SDS011;7615;48.574;13.474;2023-08-01T08:08:33;6.82;;;4.40;;
15035;SDS011;7615;48.574;13.474;2023-08-01T08:11:01;5.25;;;4.10;;
15035;SDS011;7615;48.574;13.474;2023-08-01T08:13:29;5.28;;;4.22;;
15035;SDS011;7615;48.574;13.474;2023-08-01T08:15:56;6.22;;;4.25;;
15035;SDS011;7615;48.574;13.474;2023-08-01T08:18:24;5.15;;;3.80;;
15035;SDS011;7615;48.574;13.474;2023-08-01T08:20:51;5.35;;;3.90;;
15035;SDS011;7615;48.574;13.474;2023-08-01T08:23:18;5.13;;;3.75;;
15035;SDS011;7615;48.574;13.474;2023-08-01T08:25:45;5.40;;;3.67;;
15035;SDS011;7615;48.574;13.474;2023-08-01T08:28:12;5.20;;;3.42;;
15035;SDS011;7615;48.574;13.474;2023-08-01T08:30:41;4.38;;;3.60;;
15035;SDS011;7615;48.574;13.474;2023-08-01T08:33:08;6.80;;;3.72;;
15035;SDS011;7615;48.574;13.474;2023-08-01T08:35:35;7.28;;;3.83;;
15035;SDS011;7615;48.574;13.474;2023-08-01T08:38:02;8.48;;;3.83;;
15035;SDS011;7615;48.574;13.474;2023-08-01T08:40:30;7.05;;;4.32;;
15035;SDS011;7615;48.574;13.474;2023-08-01T08:42:58;4.05;;;3.40;;
15035;SDS011;7615;48.574;13.474;2023-08-01T08:45:28;5.60;;;4.00;;
15035;SDS011;7615;48.574;13.474;2023-08-01T08:48:01;6.88;;;3.95;;
15035;SDS011;7615;48.574;13.474;2023-08-01T08:50:34;6.75;;;3.85;;
15035;SDS011;7615;48.574;13.474;2023-08-01T08:53:02;4.72;;;3.67;;
15035;SDS011;7615;48.574;13.474;2023-08-01T08:55:30;4.00;;;3.38;;
15035;SDS011;7615;48.574;13.474;2023-08-01T08:57:58;3.25;;;2.95;;
15035;SDS011;7615;48.574;13.474;2023-08-01T09:00:26;5.95;;;4.03;;
15035;SDS011;7615;48.574;13.474;2023-08-01T09:02:53;4.40;;;3.50;;
15035;SDS011;7615;48.574;13.474;2023-08-01T09:05:22;6.97;;;3.80;;
15035;SDS011;7615;48.574;13.474;2023-08-01T09:07:55;4.60;;;3.10;;
15035;SDS011;7615;48.574;13.474;2023-08-01T09:10:23;5.22;;;3.15;;
15035;SDS011;7615;48.574;13.474;2023-08-01T09:12:50;4.72;;;3.30;;
15035;SDS011;7615;48.574;13.474;2023-08-01T09:15:17;3.10;;;2.80;;
15035;SDS011;7615;48.574;13.474;2023-08-01T09:17:49;4.07;;;3.25;;
15035;SDS011;7615;48.574;13.474;2023-08-01T09:20:16;6.18;;;3.58;;
15035;SDS011;7615;48.574;13.474;2023-08-01T09:22:45;3.53;;;3.22;;
15035;SDS011;7615;48.574;13.474;2023-08-01T09:25:12;3.70;;;3.35;;
15035;SDS011;7615;48.574;13.474;2023-08-01T09:27:41;3.45;;;3.10;;
15035;SDS011;7615;48.574;13.474;2023-08-01T09:30:09;4.68;;;3.50;;
15035;SDS011;7615;48.574;13.474;2023-08-01T09:32:38;4.03;;;3.25;;
15035;SDS011;7615;48.574;13.474;2023-08-01T09:35:05;4.35;;;3.42;;
15035;SDS011;7615;48.574;13.474;2023-08-01T09:37:39;3.75;;;3.33;;
15035;SDS011;7615;48.574;13.474;2023-08-01T09:40:09;4.25;;;3.50;;
15035;SDS011;7615;48.574;13.474;2023-08-01T09:42:39;3.45;;;3.15;;
15035;SDS011;7615;48.574;13.474;2023-08-01T09:45:11;4.65;;;3.33;;
15035;SDS011;7615;48.574;13.474;2023-08-01T09:47:39;4.22;;;3.10;;
15035;SDS011;7615;48.574;13.474;2023-08-01T09:50:06;6.13;;;3.22;;
15035;SDS011;7615;48.574;13.474;2023-08-01T09:52:34;3.67;;;2.72;;
15035;SDS011;7615;48.574;13.474;2023-08-01T09:55:01;3.58;;;3.00;;
15035;SDS011;7615;48.574;13.474;2023-08-01T09:57:30;3.58;;;3.20;;
15035;SDS011;7615;48.574;13.474;2023-08-01T09:59:57;3.53;;;3.03;;
15035;SDS011;7615;48.574;13.474;2023-08-01T10:02:25;3.38;;;3.08;;
15035;SDS011;7615;48.574;13.474;2023-08-01T10:04:53;6.22;;;3.22;;
15035;SDS011;7615;48.574;13.474;2023-08-01T10:07:23;4.35;;;3.20;;
15035;SDS011;7615;48.574;13.474;2023-08-01T10:09:51;5.13;;;2.92;;
15035;SDS011;7615;48.574;13.474;2023-08-01T10:12:22;4.32;;;2.95;;
15035;SDS011;7615;48.574;13.474;2023-08-01T10:14:51;3.47;;;3.08;;
15035;SDS011;7615;48.574;13.474;2023-08-01T10:17:21;3.80;;;3.15;;
15035;SDS011;7615;48.574;13.474;2023-08-01T10:19:49;5.53;;;3.97;;
15035;SDS011;7615;48.574;13.474;2023-08-01T10:22:16;4.63;;;3.15;;
15035;SDS011;7615;48.574;13.474;2023-08-01T10:24:44;4.72;;;3.67;;
15035;SDS011;7615;48.574;13.474;2023-08-01T10:27:12;3.40;;;3.10;;
15035;SDS011;7615;48.574;13.474;2023-08-01T10:29:39;4.82;;;3.50;;
15035;SDS011;7615;48.574;13.474;2023-08-01T10:32:08;4.85;;;3.00;;
15035;SDS011;7615;48.574;13.474;2023-08-01T10:34:35;4.40;;;3.70;;
15035;SDS011;7615;48.574;13.474;2023-08-01T10:37:03;5.30;;;3.70;;
15035;SDS011;7615;48.574;13.474;2023-08-01T10:39:30;4.57;;;3.35;;
15035;SDS011;7615;48.574;13.474;2023-08-01T10:41:58;8.13;;;6.30;;
15035;SDS011;7615;48.574;13.474;2023-08-01T10:44:25;4.30;;;3.38;;
15035;SDS011;7615;48.574;13.474;2023-08-01T10:46:53;5.22;;;3.83;;
15035;SDS011;7615;48.574;13.474;2023-08-01T10:49:32;3.45;;;3.00;;
15035;SDS011;7615;48.574;13.474;2023-08-01T10:52:00;5.13;;;3.42;;
15035;SDS011;7615;48.574;13.474;2023-08-01T10:54:27;4.65;;;3.50;;
15035;SDS011;7615;48.574;13.474;2023-08-01T10:56:56;4.40;;;3.05;;
15035;SDS011;7615;48.574;13.474;2023-08-01T10:59:24;4.95;;;3.38;;
15035;SDS011;7615;48.574;13.474;2023-08-01T11:01:52;5.22;;;3.25;;
15035;SDS011;7615;48.574;13.474;2023-08-01T11:04:20;3.78;;;3.22;;
15035;SDS011;7615;48.574;13.474;2023-08-01T11:06:50;3.42;;;3.17;;
15035;SDS011;7615;48.574;13.474;2023-08-01T11:09:18;4.30;;;3.90;;
15035;SDS011;7615;48.574;13.474;2023-08-01T11:11:47;5.03;;;3.67;;
15035;SDS011;7615;48.574;13.474;2023-08-01T11:14:15;4.75;;;3.75;;
15035;SDS011;7615;48.574;13.474;2023-08-01T11:16:43;3.40;;;3.08;;
15035;SDS011;7615;48.574;13.474;2023-08-01T11:19:17;4.22;;;3.60;;
15035;SDS011;7615;48.574;13.474;2023-08-01T11:21:45;3.88;;;3.47;;
15035;SDS011;7615;48.574;13.474;2023-08-01T11:24:13;4.13;;;3.40;;
15035;SDS011;7615;48.574;13.474;2023-08-01T11:26:41;3.47;;;3.17;;
15035;SDS011;7615;48.574;13.474;2023-08-01T11:29:09;4.00;;;3.60;;
15035;SDS011;7615;48.574;13.474;2023-08-01T11:31:37;4.63;;;3.60;;
15035;SDS011;7615;48.574;13.474;2023-08-01T11:34:04;4.00;;;3.10;;
15035;SDS011;7615;48.574;13.474;2023-08-01T11:36:33;3.63;;;3.15;;
15035;SDS011;7615;48.574;13.474;2023-08-01T11:39:00;3.45;;;3.13;;
15035;SDS011;7615;48.574;13.474;2023-08-01T11:41:30;5.05;;;3.58;;
15035;SDS011;7615;48.574;13.474;2023-08-01T11:44:01;5.93;;;3.40;;
15035;SDS011;7615;48.574;13.474;2023-08-01T11:46:30;5.68;;;4.20;;
15035;SDS011;7615;48.574;13.474;2023-08-01T11:48:58;5.50;;;4.15;;
15035;SDS011;7615;48.574;13.474;2023-08-01T11:51:25;4.75;;;3.90;;
15035;SDS011;7615;48.574;13.474;2023-08-01T11:53:57;4.75;;;3.97;;
15035;SDS011;7615;48.574;13.474;2023-08-01T11:56:25;6.10;;;4.32;;
15035;SDS011;7615;48.574;13.474;2023-08-01T11:58:53;8.43;;;4.70;;
15035;SDS011;7615;48.574;13.474;2023-08-01T12:01:21;6.50;;;4.28;;
15035;SDS011;7615;48.574;13.474;2023-08-01T12:03:49;7.53;;;4.72;;
15035;SDS011;7615;48.574;13.474;2023-08-01T12:06:17;6.97;;;4.20;;
15035;SDS011;7615;48.574;13.474;2023-08-01T12:08:45;6.80;;;4.45;;
15035;SDS011;7615;48.574;13.474;2023-08-01T12:11:19;7.00;;;4.53;;
15035;SDS011;7615;48.574;13.474;2023-08-01T12:13:47;6.75;;;4.68;;
15035;SDS011;7615;48.574;13.474;2023-08-01T12:16:15;6.00;;;4.32;;
15035;SDS011;7615;48.574;13.474;2023-08-01T12:18:45;7.35;;;4.50;;
15035;SDS011;7615;48.574;13.474;2023-08-01T12:21:13;5.68;;;3.85;;
15035;SDS011;7615;48.574;13.474;2023-08-01T12:23:40;4.53;;;4.13;;
15035;SDS011;7615;48.574;13.474;2023-08-01T12:26:07;4.65;;;3.95;;
15035;SDS011;7615;48.574;13.474;2023-08-01T12:28:35;7.10;;;4.38;;
15035;SDS011;7615;48.574;13.474;2023-08-01T12:31:02;5.65;;;4.05;;
15035;SDS011;7615;48.574;13.474;2023-08-01T12:33:31;7.38;;;3.92;;
15035;SDS011;7615;48.574;13.474;2023-08-01T12:35:59;6.85;;;4.03;;
15035;SDS011;7615;48.574;13.474;2023-08-01T12:38:26;5.10;;;3.53;;
15035;SDS011;7615;48.574;13.474;2023-08-01T12:40:53;4.70;;;3.88;;
15035;SDS011;7615;48.574;13.474;2023-08-01T12:43:20;4.72;;;3.80;;
15035;SDS011;7615;48.574;13.474;2023-08-01T12:45:47;8.50;;;4.22;;
15035;SDS011;7615;48.574;13.474;2023-08-01T12:48:15;0.52;;;0.52;;
15035;SDS011;7615;48.574;13.474;2023-08-01T12:50:44;0.25;;;0.25;;
15035;SDS011;7615;48.574;13.474;2023-08-01T12:53:11;1.45;;;0.73;;
15035;SDS011;7615;48.574;13.474;2023-08-01T12:55:38;1.67;;;0.63;;
15035;SDS011;7615;48.574;13.474;2023-08-01T12:58:08;0.20;;;0.20;;
15035;SDS011;7615;48.574;13.474;2023-08-01T13:00:35;0.57;;;0.57;;
15035;SDS011;7615;48.574;13.474;2023-08-01T13:03:01;0.10;;;0.10;;
15035;SDS011;7615;48.574;13.474;2023-08-01T13:05:29;0.05;;;0.05;;
15035;SDS011;7615;48.574;13.474;2023-08-01T13:07:57;0.20;;;0.20;;
15035;SDS011;7615;48.574;13.474;2023-08-01T13:10:24;0.15;;;0.15;;
15035;SDS011;7615;48.574;13.474;2023-08-01T13:12:50;0.22;;;0.22;;
15035;SDS011;7615;48.574;13.474;2023-08-01T13:15:17;0.10;;;0.10;;
15035;SDS011;7615;48.574;13.474;2023-08-01T13:17:44;0.70;;;0.68;;
15035;SDS011;7615;48.574;13.474;2023-08-01T13:20:11;2.10;;;0.95;;
15035;SDS011;7615;48.574;13.474;2023-08-01T13:22:38;0.10;;;0.10;;
15035;SDS011;7615;48.574;13.474;2023-08-01T13:25:06;1.67;;;1.25;;
15035;SDS011;7615;48.574;13.474;2023-08-01T13:27:34;0.17;;;0.17;;
15035;SDS011;7615;48.574;13.474;2023-08-01T13:30:01;1.20;;;0.75;;
15035;SDS011;7615;48.574;13.474;2023-08-01T13:32:28;1.45;;;1.05;;
15035;SDS011;7615;48.574;13.474;2023-08-01T13:34:55;0.40;;;0.40;;
15035;SDS011;7615;48.574;13.474;2023-08-01T13:37:22;0.15;;;0.15;;
15035;SDS011;7615;48.574;13.474;2023-08-01T13:39:49;0.47;;;0.25;;
15035;SDS011;7615;48.574;13.474;2023-08-01T13:42:17;0.10;;;0.10;;
15035;SDS011;7615;48.574;13.474;2023-08-01T13:44:44;0.85;;;0.65;;
15035;SDS011;7615;48.574;13.474;2023-08-01T13:47:11;0.43;;;0.43;;
15035;SDS011;7615;48.574;13.474;2023-08-01T13:49:38;1.05;;;0.95;;
15035;SDS011;7615;48.574;13.474;2023-08-01T13:52:05;0.40;;;0.30;;
15035;SDS011;7615;48.574;13.474;2023-08-01T13:54:32;0.15;;;0.15;;
15035;SDS011;7615;48.574;13.474;2023-08-01T13:56:59;0.10;;;0.10;;
15035;SDS011;7615;48.574;13.474;2023-08-01T13:59:27;0.10;;;0.10;;
15035;SDS011;7615;48.574;13.474;2023-08-01T14:01:54;0.10;;;0.10;;
15035;SDS011;7615;48.574;13.474;2023-08-01T14:04:21;0.20;;;0.20;;
15035;SDS011;7615;48.574;13.474;2023-08-01T14:06:48;0.40;;;0.40;;
15035;SDS011;7615;48.574;13.474;2023-08-01T14:09:15;0.15;;;0.15;;
15035;SDS011;7615;48.574;13.474;2023-08-01T14:11:41;0.28;;;0.28;;
15035;SDS011;7615;48.574;13.474;2023-08-01T14:14:08;1.13;;;0.65;;
15035;SDS011;7615;48.574;13.474;2023-08-01T14:16:36;0.10;;;0.10;;
15035;SDS011;7615;48.574;13.474;2023-08-01T14:19:03;0.10;;;0.10;;
15035;SDS011;7615;48.574;13.474;2023-08-01T14:21:33;0.03;;;0.03;;
15035;SDS011;7615;48.574;13.474;2023-08-01T14:24:00;0.20;;;0.20;;
15035;SDS011;7615;48.574;13.474;2023-08-01T14:26:27;0.00;;;0.00;;
15035;SDS011;7615;48.574;13.474;2023-08-01T14:28:54;0.00;;;0.00;;
15035;SDS011;7615;48.574;13.474;2023-08-01T14:31:20;0.22;;;0.22;;
15035;SDS011;7615;48.574;13.474;2023-08-01T14:33:48;0.68;;;0.35;;
15035;SDS011;7615;48.574;13.474;2023-08-01T14:36:15;0.10;;;0.10;;
15035;SDS011;7615;48.574;13.474;2023-08-01T14:38:42;0.00;;;0.00;;
15035;SDS011;7615;48.574;13.474;2023-08-01T14:41:09;0.15;;;0.15;;
15035;SDS011;7615;48.574;13.474;2023-08-01T14:43:36;0.55;;;0.55;;
15035;SDS011;7615;48.574;13.474;2023-08-01T14:46:03;1.90;;;0.70;;
15035;SDS011;7615;48.574;13.474;2023-08-01T14:48:30;0.10;;;0.10;;
15035;SDS011;7615;48.574;13.474;2023-08-01T14:50:58;0.08;;;0.08;;